Date,TemperatureHighF,TemperatureAvgF,TemperatureLowF,DewpointHighF,DewpointAvgF,DewpointLowF,HumidityHigh,HumidityAvg,HumidityLow,PressureMaxIn,PressureMinIn,WindSpeedMaxMPH,WindSpeedAvgMPH,GustSpeedMaxMPH,PrecipitationSumIn
2012-12-1,31,28,25,27,19,6,89,70,36,30.16,30.02,14,5,14,0.00
2012-12-2,60,42,30,44,36,26,91,80,57,30.01,29.61,5,3,7,0.01
2012-12-3,51,46,31,46,43,29,95,88,83,29.81,29.50,10,6,10,0.01
2012-12-4,57,46,29,53,43,28,98,88,74,29.83,29.49,14,4,14,0.00
2012-12-5,43,37,32,26,20,15,58,50,45,29.63,29.49,31,12,31,0.21
2012-12-6,59,34,20,19,15,9,84,52,18,29.83,29.63,14,4,19,0.00
2012-12-7,56,36,19,41,30,14,98,80,43,29.81,29.54,8,2,11,0.05
2012-12-8,45,42,41,44,42,41,99,99,97,29.55,29.36,8,3,9,0.25
2012-12-9,57,42,33,49,38,31,99,85,47,29.81,29.44,11,3,12,0.06
2012-12-10,53,47,42,52,46,40,98,97,94,29.69,28.99,13,3,15,0.35
2012-12-11,59,42,27,48,35,23,98,78,39,29.64,29.00,14,4,18,0.01
2012-12-12,47,31,24,27,22,18,88,70,38,29.94,29.64,7,3,8,0.00
2012-12-13,68,34,22,31,22,17,93,70,16,29.98,29.79,7,2,7,0.00
2012-12-14,64,38,22,34,23,15,96,62,16,29.79,29.53,17,4,18,0.00
2012-12-15,60,36,24,29,22,16,87,60,22,29.86,29.66,9,3,9,0.00
2012-12-16,36,32,28,34,25,16,95,76,60,29.85,29.63,8,4,11,0.12
2012-12-17,46,42,36,45,42,35,99,97,94,29.61,29.33,11,5,14,0.56
2012-12-18,47,46,42,46,46,42,99,99,97,29.31,28.87,10,8,15,0.31
2012-12-19,41,38,36,34,33,31,90,83,68,29.54,29.36,10,3,10,0.31
2012-12-20,47,38,28,36,31,24,91,78,58,29.71,29.54,9,2,11,0.00
2012-12-21,40,39,38,38,36,35,92,89,87,29.55,29.42,5,1,7,0.01
2012-12-22,51,35,27,34,19,8,84,52,29,29.10,28.71,25,10,27,0.09
2012-12-23,52,34,24,22,14,8,68,46,20,29.35,29.11,25,7,25,0.00
2012-12-24,56,35,25,23,16,9,67,48,19,29.57,29.36,11,4,11,0.00
2012-12-25,34,31,25,26,21,12,77,67,52,29.73,29.50,9,4,9,0.00
2012-12-26,46,32,17,32,19,7,86,61,26,29.83,29.48,21,6,21,0.11
2012-12-27,46,37,29,45,36,27,96,94,88,29.44,28.81,27,10,27,5.60
2012-12-28,50,35,26,44,22,18,97,63,33,29.50,29.10,19,7,24,1.00
2012-12-29,38,30,23,36,25,18,92,79,62,29.51,28.89,22,5,22,0.33
2012-12-30,33,26,20,25,15,3,86,63,42,29.44,28.90,27,7,31,0.14
2012-12-31,49,28,17,24,14,3,69,54,35,29.53,29.25,22,7,25,0.00